Time;durP1;ratioP1;P1;durP2;ratioP2;P2;SDS_P1;SDS_P2;PMS_P1;PMS_P2;Temp;Humidity;BMP_temperature;BMP_pressure;BME280_temperature;BME280_humidity;BME280_pressure;Samples;Min_cycle;Max_cycle;Signal;HPM_P1;HPM_P2
2023/08/14 00:00:27;;;;;;;;;;;15.20;99.90;;;;;;5108907;28;19994;-71
2023/08/14 00:02:53;;;;;;;;;;;15.40;99.90;;;;;;5111549;28;20357;-70
2023/08/14 00:05:20;;;;;;;;;;;15.40;99.90;;;;;;5110219;28;19912;-70
2023/08/14 00:07:46;;;;;;;;;;;15.50;99.90;;;;;;5109433;28;19976;-73
2023/08/14 00:10:16;;;;;;;;;;;15.40;99.90;;;;;;5108893;28;20425;-69
2023/08/14 00:12:43;;;;;;;;;;;15.50;99.90;;;;;;5113704;28;20395;-71
2023/08/14 00:15:09;;;;;;;;;;;15.60;99.90;;;;;;5114034;28;20003;-71
2023/08/14 00:17:36;;;;;;;;;;;15.70;99.90;;;;;;5116658;28;20261;-70
2023/08/14 00:20:04;;;;;;;;;;;15.90;99.90;;;;;;5115062;28;19962;-72
2023/08/14 00:22:30;;;;;;;;;;;16.10;99.90;;;;;;5116704;28;19911;-70
2023/08/14 00:24:57;;;;;;;;;;;16.30;99.90;;;;;;5112707;28;19916;-71
2023/08/14 00:27:25;;;;;;;;;;;16.50;99.90;;;;;;5111299;27;20292;-77
2023/08/14 00:29:51;;;;;;;;;;;16.60;99.90;;;;;;5111870;28;19920;-81
2023/08/14 00:32:18;;;;;;;;;;;16.80;99.90;;;;;;5112705;27;19908;-72
2023/08/14 00:34:45;;;;;;;;;;;16.70;99.90;;;;;;5113734;27;19965;-70
2023/08/14 00:37:11;;;;;;;;;;;16.70;99.90;;;;;;5093972;27;19908;-79
2023/08/14 00:39:38;;;;;;;;;;;16.70;99.90;;;;;;5112921;27;20373;-73
2023/08/14 00:42:05;;;;;;;;;;;16.70;99.90;;;;;;5112738;28;19908;-71
2023/08/14 00:44:32;;;;;;;;;;;16.60;99.90;;;;;;5093735;28;19930;-75
2023/08/14 00:46:58;;;;;;;;;;;16.70;99.90;;;;;;5110819;28;19957;-72
2023/08/14 00:49:30;;;;;;;;;;;16.70;99.90;;;;;;5108504;28;20553;-82
2023/08/14 00:51:57;;;;;;;;;;;16.60;99.90;;;;;;5093202;28;19919;-72
2023/08/14 00:54:24;;;;;;;;;;;16.40;99.90;;;;;;5093683;28;19940;-76
2023/08/14 00:56:50;;;;;;;;;;;16.30;99.90;;;;;;5111128;28;19908;-74
2023/08/14 00:59:17;;;;;;;;;;;16.30;99.90;;;;;;5111391;28;20407;-73
2023/08/14 01:01:44;;;;;;;;;;;16.20;99.90;;;;;;5112519;28;19908;-73
2023/08/14 01:04:10;;;;;;;;;;;16.10;99.90;;;;;;5099518;28;19912;-73
2023/08/14 01:06:37;;;;;;;;;;;16.10;99.90;;;;;;5091431;28;20311;-75
2023/08/14 01:09:04;;;;;;;;;;;16.20;99.90;;;;;;5091576;28;19916;-80
2023/08/14 01:11:46;;;;;;;;;;;16.30;99.90;;;;;;5092160;28;20345;-72
2023/08/14 01:14:20;;;;;;;;;;;16.40;99.90;;;;;;5091177;28;19908;-72
2023/08/14 01:16:50;;;;;;;;;;;16.60;99.90;;;;;;5105772;28;19979;-77
2023/08/14 01:19:21;;;;;;;;;;;16.70;99.90;;;;;;5105001;28;19965;-74
2023/08/14 01:22:03;;;;;;;;;;;16.80;99.90;;;;;;5109261;28;19911;-76
2023/08/14 01:24:37;;;;;;;;;;;17.00;99.90;;;;;;5108491;28;19919;-77
2023/08/14 01:27:04;;;;;;;;;;;17.10;99.90;;;;;;5111694;28;20023;-74
2023/08/14 01:29:35;;;;;;;;;;;17.30;99.90;;;;;;5103016;28;19912;-76
2023/08/14 01:32:01;;;;;;;;;;;17.40;99.90;;;;;;5109057;28;19908;-72
2023/08/14 01:34:28;;;;;;;;;;;17.70;99.90;;;;;;5104189;28;20300;-77
2023/08/14 01:37:02;;;;;;;;;;;17.80;99.90;;;;;;5111785;28;19923;-76
2023/08/14 01:39:37;;;;;;;;;;;17.80;99.90;;;;;;5100594;28;19908;-76
2023/08/14 01:42:06;;;;;;;;;;;17.80;99.90;;;;;;5096974;28;20369;-74
2023/08/14 01:44:35;;;;;;;;;;;17.90;99.90;;;;;;5105041;28;19968;-72
2023/08/14 01:47:04;;;;;;;;;;;18.00;99.90;;;;;;5107162;28;19927;-77
2023/08/14 01:49:31;;;;;;;;;;;18.00;99.90;;;;;;5109843;28;19912;-71
2023/08/14 01:51:58;;;;;;;;;;;18.10;99.90;;;;;;5109571;28;19922;-73
2023/08/14 01:54:24;;;;;;;;;;;18.10;99.90;;;;;;5110102;28;19919;-74
2023/08/14 01:56:51;;;;;;;;;;;18.10;99.90;;;;;;5108456;28;20383;-75
2023/08/14 01:59:18;;;;;;;;;;;18.10;99.90;;;;;;5108522;28;20424;-75
2023/08/14 02:01:45;;;;;;;;;;;18.00;99.90;;;;;;5110425;28;20395;-75
2023/08/14 02:04:11;;;;;;;;;;;17.90;99.90;;;;;;5093183;28;19915;-76
2023/08/14 02:06:38;;;;;;;;;;;17.80;99.90;;;;;;5111310;28;19908;-71
2023/08/14 02:09:05;;;;;;;;;;;17.70;99.90;;;;;;5109077;28;20024;-71
2023/08/14 02:11:31;;;;;;;;;;;17.60;99.90;;;;;;5110132;28;19914;-72
2023/08/14 02:13:59;;;;;;;;;;;17.70;99.90;;;;;;5110837;28;19935;-80
2023/08/14 02:16:26;;;;;;;;;;;17.80;99.90;;;;;;5111064;28;19995;-77
2023/08/14 02:18:53;;;;;;;;;;;18.00;99.90;;;;;;5108243;28;19916;-74
2023/08/14 02:21:19;;;;;;;;;;;18.10;99.90;;;;;;5092685;28;19912;-71
2023/08/14 02:23:46;;;;;;;;;;;18.00;99.90;;;;;;5111289;28;19976;-76
2023/08/14 02:26:12;;;;;;;;;;;18.00;99.90;;;;;;5110290;28;19953;-74
2023/08/14 02:28:39;;;;;;;;;;;18.10;99.90;;;;;;5107606;28;19927;-71
2023/08/14 02:31:06;;;;;;;;;;;18.10;99.90;;;;;;5110039;28;20421;-72
2023/08/14 02:33:32;;;;;;;;;;;18.30;99.90;;;;;;5112530;28;19908;-72
2023/08/14 02:35:59;;;;;;;;;;;18.30;99.90;;;;;;5114972;28;20399;-73
2023/08/14 02:38:26;;;;;;;;;;;18.30;99.90;;;;;;5112918;28;19912;-71
2023/08/14 02:40:52;;;;;;;;;;;18.40;99.90;;;;;;5114383;28;19911;-73
2023/08/14 02:43:19;;;;;;;;;;;18.40;99.90;;;;;;5112742;28;19922;-75
2023/08/14 02:45:46;;;;;;;;;;;18.30;99.90;;;;;;5096431;28;20423;-76
2023/08/14 02:48:13;;;;;;;;;;;18.00;99.90;;;;;;5113086;28;19916;-72
2023/08/14 02:50:40;;;;;;;;;;;17.60;99.90;;;;;;5111968;28;20308;-77
2023/08/14 02:53:07;;;;;;;;;;;17.30;99.90;;;;;;5114221;28;19964;-76
2023/08/14 02:55:34;;;;;;;;;;;17.10;99.90;;;;;;5114258;28;20577;-72
2023/08/14 02:58:02;;;;;;;;;;;16.90;99.90;;;;;;5114781;28;19912;-71
2023/08/14 03:00:28;;;;;;;;;;;16.70;99.90;;;;;;5113814;28;19908;-73
2023/08/14 03:02:55;;;;;;;;;;;16.60;99.90;;;;;;5099746;28;20281;-70
2023/08/14 03:05:22;;;;;;;;;;;16.50;99.90;;;;;;5097797;28;19919;-72
2023/08/14 03:07:48;;;;;;;;;;;16.40;99.90;;;;;;5114484;28;19920;-70
2023/08/14 03:10:15;;;;;;;;;;;16.40;99.90;;;;;;5113696;28;20338;-70
2023/08/14 03:12:42;;;;;;;;;;;16.30;99.90;;;;;;5115208;28;19904;-70
2023/08/14 03:15:08;;;;;;;;;;;16.30;99.90;;;;;;5114182;28;19912;-77
2023/08/14 03:17:35;;;;;;;;;;;16.20;99.90;;;;;;5112815;28;20003;-71
2023/08/14 03:20:04;;;;;;;;;;;16.10;99.90;;;;;;5108554;28;19908;-72
2023/08/14 03:22:30;;;;;;;;;;;16.10;99.90;;;;;;5092376;28;20273;-74
2023/08/14 03:24:57;;;;;;;;;;;16.00;99.90;;;;;;5092278;28;19908;-73
2023/08/14 03:27:24;;;;;;;;;;;16.00;99.90;;;;;;5092303;28;20016;-77
2023/08/14 03:29:50;;;;;;;;;;;16.00;99.90;;;;;;5104780;28;19915;-78
2023/08/14 03:32:17;;;;;;;;;;;15.80;99.90;;;;;;5105987;28;19911;-77
2023/08/14 03:34:44;;;;;;;;;;;15.90;99.90;;;;;;5114661;28;20322;-74
2023/08/14 03:37:10;;;;;;;;;;;15.80;99.90;;;;;;5112201;28;19916;-74
2023/08/14 03:39:37;;;;;;;;;;;15.80;99.90;;;;;;5104614;28;19923;-77
2023/08/14 03:42:04;;;;;;;;;;;15.80;99.90;;;;;;5104720;28;19998;-73
2023/08/14 03:44:30;;;;;;;;;;;16.00;99.90;;;;;;5112650;28;19920;-76
2023/08/14 03:46:57;;;;;;;;;;;16.00;99.90;;;;;;5094831;28;19957;-74
2023/08/14 03:49:23;;;;;;;;;;;15.90;99.90;;;;;;5104102;28;20368;-77
2023/08/14 03:51:50;;;;;;;;;;;15.80;99.90;;;;;;5093345;28;19927;-72
2023/08/14 03:54:17;;;;;;;;;;;15.90;99.90;;;;;;5095701;28;19908;-70
2023/08/14 03:56:43;;;;;;;;;;;15.80;99.90;;;;;;5110255;28;20037;-74
2023/08/14 03:59:12;;;;;;;;;;;15.60;99.90;;;;;;5105536;28;19912;-75
2023/08/14 04:01:40;;;;;;;;;;;15.40;99.90;;;;;;5100870;28;19920;-75
2023/08/14 04:04:06;;;;;;;;;;;15.30;99.90;;;;;;5106775;28;19916;-77
2023/08/14 04:06:37;;;;;;;;;;;15.20;99.90;;;;;;5107436;27;20327;-78
2023/08/14 04:09:05;;;;;;;;;;;15.10;99.90;;;;;;5109722;28;19911;-78
2023/08/14 04:11:32;;;;;;;;;;;15.00;99.90;;;;;;5076626;28;19923;-75
2023/08/14 04:13:59;;;;;;;;;;;14.90;99.90;;;;;;5104561;28;19915;-74
2023/08/14 04:16:41;;;;;;;;;;;14.90;99.90;;;;;;5105107;27;20030;-72
2023/08/14 04:19:08;;;;;;;;;;;14.90;99.90;;;;;;5096488;28;19991;-72
2023/08/14 04:21:36;;;;;;;;;;;14.80;99.90;;;;;;5080619;28;19912;-72
2023/08/14 04:24:02;;;;;;;;;;;14.90;99.90;;;;;;5096767;28;19969;-74
2023/08/14 04:26:29;;;;;;;;;;;14.90;99.90;;;;;;5110147;27;19915;-73
2023/08/14 04:28:56;;;;;;;;;;;14.80;99.90;;;;;;5108439;28;20276;-70
2023/08/14 04:31:22;;;;;;;;;;;14.80;99.90;;;;;;5092914;28;19954;-73
2023/08/14 04:33:49;;;;;;;;;;;14.80;99.90;;;;;;5083014;28;20021;-74
2023/08/14 04:36:15;;;;;;;;;;;14.80;99.90;;;;;;5113500;27;20383;-72
2023/08/14 04:38:42;;;;;;;;;;;14.70;99.90;;;;;;5090674;28;19915;-70
2023/08/14 04:41:09;;;;;;;;;;;14.70;99.90;;;;;;5089129;28;19922;-73
2023/08/14 04:43:36;;;;;;;;;;;14.70;99.90;;;;;;5112301;28;19919;-76
2023/08/14 04:46:08;;;;;;;;;;;14.70;99.90;;;;;;5112102;28;20018;-70
2023/08/14 04:48:34;;;;;;;;;;;14.70;99.90;;;;;;5101928;28;19923;-75
2023/08/14 04:51:01;;;;;;;;;;;14.70;99.90;;;;;;5092482;28;20031;-73
2023/08/14 04:53:28;;;;;;;;;;;14.90;99.90;;;;;;5111227;28;19908;-69
2023/08/14 04:55:54;;;;;;;;;;;14.90;99.90;;;;;;5093506;28;20256;-68
2023/08/14 04:58:21;;;;;;;;;;;14.90;99.90;;;;;;5107836;28;19957;-73
2023/08/14 05:00:47;;;;;;;;;;;14.90;99.90;;;;;;5110559;28;19922;-73
2023/08/14 05:03:14;;;;;;;;;;;14.80;99.90;;;;;;5111682;28;20544;-73
2023/08/14 05:05:41;;;;;;;;;;;14.80;99.90;;;;;;5111393;28;20432;-72
2023/08/14 05:08:07;;;;;;;;;;;14.80;99.90;;;;;;5112035;28;19916;-74
2023/08/14 05:10:34;;;;;;;;;;;14.80;99.90;;;;;;5092385;28;19923;-75
2023/08/14 05:13:01;;;;;;;;;;;14.70;99.90;;;;;;5110678;28;19915;-74
2023/08/14 05:15:27;;;;;;;;;;;14.60;99.90;;;;;;5092508;28;20008;-72
2023/08/14 05:17:54;;;;;;;;;;;14.50;99.90;;;;;;5093965;28;19955;-76
2023/08/14 05:20:20;;;;;;;;;;;14.40;99.90;;;;;;5087626;28;19947;-75
2023/08/14 05:22:47;;;;;;;;;;;14.50;99.90;;;;;;5112023;28;20010;-71
2023/08/14 05:25:14;;;;;;;;;;;14.30;99.90;;;;;;5111566;28;19916;-74
2023/08/14 05:27:40;;;;;;;;;;;14.30;99.90;;;;;;5111932;28;19920;-75
2023/08/14 05:30:07;;;;;;;;;;;14.30;99.90;;;;;;5108520;28;20296;-71
2023/08/14 05:32:34;;;;;;;;;;;14.20;99.90;;;;;;5109971;28;20318;-70
2023/08/14 05:35:01;;;;;;;;;;;14.20;99.90;;;;;;5109721;28;20326;-69
2023/08/14 05:37:27;;;;;;;;;;;14.10;99.90;;;;;;5111536;28;19966;-74
2023/08/14 05:39:54;;;;;;;;;;;14.10;99.90;;;;;;5110341;28;20360;-79
2023/08/14 05:42:20;;;;;;;;;;;14.10;99.90;;;;;;5107913;28;19912;-69
2023/08/14 05:44:47;;;;;;;;;;;14.00;99.90;;;;;;5108716;28;19969;-72
2023/08/14 05:47:14;;;;;;;;;;;14.20;99.90;;;;;;5104904;28;19945;-75
2023/08/14 05:49:40;;;;;;;;;;;14.20;99.90;;;;;;5107634;28;20668;-72
2023/08/14 05:52:07;;;;;;;;;;;14.20;99.90;;;;;;5108642;28;20007;-72
2023/08/14 05:54:34;;;;;;;;;;;14.20;99.90;;;;;;5103873;28;19992;-72
2023/08/14 05:57:00;;;;;;;;;;;14.30;99.90;;;;;;5104424;28;21084;-72
2023/08/14 05:59:27;;;;;;;;;;;14.30;99.90;;;;;;5115805;28;19907;-72
2023/08/14 06:01:54;;;;;;;;;;;14.30;99.90;;;;;;5103686;28;20413;-73
2023/08/14 06:04:20;;;;;;;;;;;14.20;99.90;;;;;;5085339;28;20007;-73
2023/08/14 06:06:47;;;;;;;;;;;14.20;99.90;;;;;;5110279;28;19908;-71
2023/08/14 06:09:14;;;;;;;;;;;14.30;99.90;;;;;;5111785;28;19999;-70
2023/08/14 06:11:40;;;;;;;;;;;14.30;99.90;;;;;;5107289;28;20295;-69
2023/08/14 06:14:07;;;;;;;;;;;14.20;99.90;;;;;;5110025;28;19927;-72
2023/08/14 06:16:34;;;;;;;;;;;14.30;99.90;;;;;;5107496;28;19908;-69
2023/08/14 06:19:00;;;;;;;;;;;14.30;99.90;;;;;;5093622;28;19924;-72
2023/08/14 06:21:27;;;;;;;;;;;14.20;99.90;;;;;;5094593;28;20356;-72
2023/08/14 06:23:53;;;;;;;;;;;14.30;99.90;;;;;;5112622;28;20384;-72
2023/08/14 06:26:21;;;;;;;;;;;14.30;99.90;;;;;;5095164;28;20372;-71
2023/08/14 06:28:47;;;;;;;;;;;14.30;99.90;;;;;;5095902;28;19927;-70
2023/08/14 06:31:14;;;;;;;;;;;14.20;99.90;;;;;;5060608;28;19973;-71
2023/08/14 06:33:41;;;;;;;;;;;14.20;99.90;;;;;;5094108;28;19938;-73
2023/08/14 06:36:08;;;;;;;;;;;14.20;99.90;;;;;;5093901;28;19912;-69
2023/08/14 06:38:35;;;;;;;;;;;14.20;99.90;;;;;;5076674;28;19920;-71
2023/08/14 06:41:01;;;;;;;;;;;14.10;99.90;;;;;;5093305;28;19915;-70
2023/08/14 06:43:28;;;;;;;;;;;14.20;99.90;;;;;;5093497;28;19920;-72
2023/08/14 06:45:55;;;;;;;;;;;14.10;99.90;;;;;;5096896;28;20279;-72
2023/08/14 06:48:21;;;;;;;;;;;14.00;99.90;;;;;;5115927;28;20370;-72
2023/08/14 06:50:48;;;;;;;;;;;14.00;99.90;;;;;;5104606;28;19916;-71
2023/08/14 06:53:15;;;;;;;;;;;14.00;99.90;;;;;;5082898;28;19912;-71
2023/08/14 06:55:46;;;;;;;;;;;14.00;99.90;;;;;;5097488;28;19976;-69
2023/08/14 06:58:12;;;;;;;;;;;13.90;99.90;;;;;;5105324;28;19938;-69
2023/08/14 07:00:39;;;;;;;;;;;13.90;99.90;;;;;;5095364;28;19934;-70
2023/08/14 07:03:06;;;;;;;;;;;13.80;99.90;;;;;;5105028;28;20485;-72
2023/08/14 07:05:32;;;;;;;;;;;13.80;99.90;;;;;;5115441;28;19908;-74
2023/08/14 07:07:59;;;;;;;;;;;13.70;99.90;;;;;;5115279;28;20357;-74
2023/08/14 07:10:25;;;;;;;;;;;13.80;99.90;;;;;;5097146;28;20356;-71
2023/08/14 07:12:52;;;;;;;;;;;13.80;99.90;;;;;;5115474;28;20381;-69
2023/08/14 07:15:19;;;;;;;;;;;13.70;99.90;;;;;;5115632;28;19914;-70
2023/08/14 07:17:45;;;;;;;;;;;13.70;99.90;;;;;;5109291;28;19958;-69
2023/08/14 07:20:12;;;;;;;;;;;13.70;99.90;;;;;;5075760;28;20261;-73
2023/08/14 07:22:39;;;;;;;;;;;13.70;99.90;;;;;;5101057;28;20405;-70
2023/08/14 07:25:06;;;;;;;;;;;13.60;99.90;;;;;;5115167;28;19914;-71
2023/08/14 07:27:32;;;;;;;;;;;13.70;99.90;;;;;;5111822;28;19920;-70
2023/08/14 07:29:59;;;;;;;;;;;13.60;99.90;;;;;;5076778;28;19931;-74
2023/08/14 07:32:26;;;;;;;;;;;13.50;99.90;;;;;;5094878;28;19908;-70
2023/08/14 07:34:55;;;;;;;;;;;13.50;99.90;;;;;;5060536;28;19923;-69
2023/08/14 07:37:22;;;;;;;;;;;13.50;99.90;;;;;;5076649;28;19920;-71
2023/08/14 07:39:49;;;;;;;;;;;13.50;99.90;;;;;;5094481;28;19939;-71
2023/08/14 07:42:16;;;;;;;;;;;13.40;99.90;;;;;;5094361;28;19909;-69
2023/08/14 07:44:42;;;;;;;;;;;13.50;99.90;;;;;;5096553;28;20296;-74
2023/08/14 07:47:10;;;;;;;;;;;13.40;99.90;;;;;;5095881;28;19919;-70
2023/08/14 07:49:37;;;;;;;;;;;13.50;99.90;;;;;;5114332;28;20036;-75
2023/08/14 07:52:04;;;;;;;;;;;13.50;99.90;;;;;;5109844;28;19919;-74
2023/08/14 07:54:31;;;;;;;;;;;13.50;99.90;;;;;;5075423;28;20281;-69
2023/08/14 07:56:58;;;;;;;;;;;13.50;99.90;;;;;;5076114;28;20316;-74
2023/08/14 07:59:24;;;;;;;;;;;13.50;99.90;;;;;;5094554;28;19919;-71
2023/08/14 08:01:51;;;;;;;;;;;13.50;99.90;;;;;;5107141;28;20312;-71
2023/08/14 08:04:18;;;;;;;;;;;13.50;99.90;;;;;;5114503;28;20006;-71
2023/08/14 08:06:44;;;;;;;;;;;13.50;99.90;;;;;;5114211;28;20003;-72
2023/08/14 08:09:12;;;;;;;;;;;13.50;99.90;;;;;;5112332;28;19911;-70
2023/08/14 08:11:38;;;;;;;;;;;13.50;99.90;;;;;;5106788;28;20019;-75
2023/08/14 08:14:06;;;;;;;;;;;13.50;99.90;;;;;;5094021;28;20348;-72
2023/08/14 08:16:36;;;;;;;;;;;13.60;99.90;;;;;;5093924;28;20414;-76
2023/08/14 08:19:03;;;;;;;;;;;13.60;99.90;;;;;;5093539;28;19958;-71
2023/08/14 08:21:30;;;;;;;;;;;13.60;99.90;;;;;;5093812;28;20360;-72
2023/08/14 08:23:57;;;;;;;;;;;13.60;99.90;;;;;;5093631;28;19908;-70
2023/08/14 08:26:24;;;;;;;;;;;13.60;99.90;;;;;;5093833;28;21009;-70
2023/08/14 08:28:50;;;;;;;;;;;13.70;99.90;;;;;;5093466;28;19923;-73
2023/08/14 08:31:17;;;;;;;;;;;13.60;99.90;;;;;;5093267;28;19908;-70
2023/08/14 08:33:43;;;;;;;;;;;13.60;99.90;;;;;;5093610;28;19908;-71
2023/08/14 08:36:10;;;;;;;;;;;13.60;99.90;;;;;;5075644;28;19914;-70
2023/08/14 08:38:37;;;;;;;;;;;13.60;99.90;;;;;;5097540;28;19953;-72
2023/08/14 08:41:04;;;;;;;;;;;13.60;99.90;;;;;;5100857;28;20269;-71
2023/08/14 08:43:32;;;;;;;;;;;13.60;99.90;;;;;;5097908;28;19923;-71
2023/08/14 08:45:59;;;;;;;;;;;13.60;99.90;;;;;;5094741;28;19951;-71
2023/08/14 08:48:28;;;;;;;;;;;13.50;99.90;;;;;;5111220;28;19916;-71
2023/08/14 08:50:55;;;;;;;;;;;13.60;99.90;;;;;;5113635;28;20007;-70
2023/08/14 08:53:22;;;;;;;;;;;13.60;99.90;;;;;;5113644;28;19990;-74
2023/08/14 08:55:49;;;;;;;;;;;13.60;99.90;;;;;;5086758;28;19911;-71
2023/08/14 08:58:16;;;;;;;;;;;13.50;99.90;;;;;;5113358;28;20383;-73
2023/08/14 09:00:43;;;;;;;;;;;13.50;99.90;;;;;;5113290;28;19929;-71
2023/08/14 09:03:12;;;;;;;;;;;13.50;99.90;;;;;;5113141;28;19916;-70
2023/08/14 09:05:40;;;;;;;;;;;13.50;99.90;;;;;;5113208;28;19908;-73
2023/08/14 09:08:08;;;;;;;;;;;13.50;99.90;;;;;;5094611;28;20425;-71
2023/08/14 09:10:35;;;;;;;;;;;13.50;99.90;;;;;;5078677;28;20383;-70
2023/08/14 09:13:02;;;;;;;;;;;13.50;99.90;;;;;;5104742;28;19911;-74
2023/08/14 09:15:28;;;;;;;;;;;13.40;99.90;;;;;;5113158;28;19915;-71
2023/08/14 09:17:55;;;;;;;;;;;13.50;99.90;;;;;;5111807;28;19930;-72
2023/08/14 09:20:22;;;;;;;;;;;13.40;99.90;;;;;;5112736;28;19908;-71
2023/08/14 09:22:49;;;;;;;;;;;13.30;99.90;;;;;;5112930;28;19914;-73
2023/08/14 09:25:16;;;;;;;;;;;13.30;99.90;;;;;;5112359;28;19919;-71
2023/08/14 09:27:43;;;;;;;;;;;13.30;99.90;;;;;;5112863;28;19917;-70
2023/08/14 09:30:12;;;;;;;;;;;13.30;99.90;;;;;;5113222;28;20452;-70
2023/08/14 09:32:38;;;;;;;;;;;13.30;99.90;;;;;;5077988;28;19908;-70
2023/08/14 09:35:06;;;;;;;;;;;13.20;99.90;;;;;;5112604;28;20014;-73
2023/08/14 09:37:34;;;;;;;;;;;13.20;99.90;;;;;;5113149;28;19908;-74
2023/08/14 09:40:13;;;;;;;;;;;13.20;99.90;;;;;;5094875;28;20011;-70
2023/08/14 09:42:40;;;;;;;;;;;13.30;99.90;;;;;;5097377;28;19938;-69
2023/08/14 09:45:06;;;;;;;;;;;13.20;99.90;;;;;;5096527;28;19924;-71
2023/08/14 09:47:34;;;;;;;;;;;13.20;99.90;;;;;;5078575;28;19959;-73
2023/08/14 09:50:01;;;;;;;;;;;13.10;99.90;;;;;;5096485;28;19915;-68
2023/08/14 09:52:27;;;;;;;;;;;13.20;99.90;;;;;;5078827;28;19908;-72
2023/08/14 09:54:54;;;;;;;;;;;13.10;99.90;;;;;;5096781;28;20032;-70
2023/08/14 09:57:24;;;;;;;;;;;13.10;99.90;;;;;;5078179;28;19935;-70
2023/08/14 09:59:52;;;;;;;;;;;13.00;99.90;;;;;;5096214;28;19919;-70
2023/08/14 10:02:22;;;;;;;;;;;13.10;99.90;;;;;;5099536;28;19908;-71
2023/08/14 10:04:49;;;;;;;;;;;13.00;99.90;;;;;;5097703;28;19912;-74
2023/08/14 10:07:17;;;;;;;;;;;13.00;99.90;;;;;;5116570;28;19912;-73
2023/08/14 10:09:51;;;;;;;;;;;13.00;99.90;;;;;;5098704;28;19941;-72
2023/08/14 10:12:22;;;;;;;;;;;13.00;99.90;;;;;;5116885;28;19914;-73
2023/08/14 10:15:04;;;;;;;;;;;13.00;99.90;;;;;;5098047;28;19908;-71
2023/08/14 10:17:31;;;;;;;;;;;12.90;99.90;;;;;;5096155;28;19912;-74
2023/08/14 10:20:00;;;;;;;;;;;13.00;99.90;;;;;;5096024;28;19919;-70
2023/08/14 10:22:28;;;;;;;;;;;12.90;99.90;;;;;;5077781;28;20413;-70
2023/08/14 10:24:55;;;;;;;;;;;12.90;99.90;;;;;;5077833;28;19954;-70
2023/08/14 10:27:22;;;;;;;;;;;12.90;99.90;;;;;;5095962;28;19919;-73
2023/08/14 10:29:49;;;;;;;;;;;12.90;99.90;;;;;;5077935;28;19912;-71
2023/08/14 10:32:16;;;;;;;;;;;12.90;99.90;;;;;;5096183;28;19908;-72
2023/08/14 10:34:43;;;;;;;;;;;12.90;99.90;;;;;;5096383;28;19950;-71
2023/08/14 10:37:24;;;;;;;;;;;12.90;99.90;;;;;;5098035;28;19990;-69
2023/08/14 10:39:51;;;;;;;;;;;12.80;99.90;;;;;;5115869;28;20264;-70
2023/08/14 10:42:17;;;;;;;;;;;12.90;99.90;;;;;;5116011;28;19908;-73
2023/08/14 10:44:44;;;;;;;;;;;12.90;99.90;;;;;;5115592;28;19956;-70
2023/08/14 10:47:13;;;;;;;;;;;12.90;99.90;;;;;;5115802;28;20329;-71
2023/08/14 10:49:44;;;;;;;;;;;12.90;99.90;;;;;;5115882;28;19907;-72
2023/08/14 10:52:15;;;;;;;;;;;13.00;99.90;;;;;;5095100;28;19920;-71
2023/08/14 10:54:44;;;;;;;;;;;12.90;99.90;;;;;;5094892;28;19912;-69
2023/08/14 10:57:14;;;;;;;;;;;12.80;99.90;;;;;;5095134;28;19935;-71
2023/08/14 10:59:43;;;;;;;;;;;12.80;99.90;;;;;;5076916;28;19909;-68
2023/08/14 11:02:10;;;;;;;;;;;12.70;99.90;;;;;;5077217;28;19923;-71
2023/08/14 11:04:55;;;;;;;;;;;12.80;99.90;;;;;;5095252;28;19944;-72
2023/08/14 11:07:25;;;;;;;;;;;12.70;99.90;;;;;;5082842;28;19922;-73
2023/08/14 11:09:51;;;;;;;;;;;12.60;99.90;;;;;;5115251;28;19935;-70
2023/08/14 11:12:18;;;;;;;;;;;12.70;99.90;;;;;;5114860;28;20359;-73
2023/08/14 11:14:46;;;;;;;;;;;12.70;99.90;;;;;;5115334;28;19923;-71
2023/08/14 11:17:13;;;;;;;;;;;12.60;99.90;;;;;;5097054;28;19915;-73
2023/08/14 11:19:39;;;;;;;;;;;12.60;99.90;;;;;;5115002;28;19908;-71
2023/08/14 11:22:06;;;;;;;;;;;12.60;99.90;;;;;;5114744;28;19912;-72
2023/08/14 11:24:33;;;;;;;;;;;12.60;99.90;;;;;;5096757;28;19908;-72
2023/08/14 11:27:00;;;;;;;;;;;12.60;99.90;;;;;;5114813;28;19914;-72
2023/08/14 11:29:26;;;;;;;;;;;12.60;99.90;;;;;;5115021;28;19908;-72
2023/08/14 11:31:54;;;;;;;;;;;12.60;99.90;;;;;;5096211;28;19912;-72
2023/08/14 11:34:21;;;;;;;;;;;12.60;99.90;;;;;;5096413;28;20365;-70
2023/08/14 11:36:58;;;;;;;;;;;12.40;99.90;;;;;;5095386;28;19915;-69
2023/08/14 11:39:25;;;;;;;;;;;12.50;99.90;;;;;;5111250;28;20357;-69
2023/08/14 11:41:52;;;;;;;;;;;12.40;99.90;;;;;;5102391;28;19999;-71
2023/08/14 11:44:18;;;;;;;;;;;12.40;99.90;;;;;;5094842;28;19945;-70
2023/08/14 11:46:46;;;;;;;;;;;12.40;99.90;;;;;;5114952;28;19911;-72
2023/08/14 11:49:12;;;;;;;;;;;12.30;99.90;;;;;;5114935;28;19912;-72
2023/08/14 11:51:40;;;;;;;;;;;12.40;99.90;;;;;;5114724;28;19907;-72
2023/08/14 11:54:09;;;;;;;;;;;12.30;99.90;;;;;;5114665;28;19914;-73
2023/08/14 11:56:37;;;;;;;;;;;12.40;99.90;;;;;;5087126;28;20624;-72
2023/08/14 11:59:07;;;;;;;;;;;12.30;99.90;;;;;;5094076;28;20327;-70
2023/08/14 12:01:37;;;;;;;;;;;12.30;99.90;;;;;;5093868;28;20287;-70
2023/08/14 12:04:05;;;;;;;;;;;12.40;99.90;;;;;;5075377;28;20249;-71
2023/08/14 12:06:32;;;;;;;;;;;12.40;99.90;;;;;;5075899;28;20679;-70
2023/08/14 12:08:59;;;;;;;;;;;12.30;99.90;;;;;;5114199;28;19916;-73
2023/08/14 12:11:27;;;;;;;;;;;12.20;99.90;;;;;;5114527;28;19907;-72
2023/08/14 12:13:54;;;;;;;;;;;12.30;99.90;;;;;;5113984;28;20062;-71
2023/08/14 12:16:21;;;;;;;;;;;12.20;99.90;;;;;;5114349;28;19908;-71
2023/08/14 12:18:48;;;;;;;;;;;12.20;99.90;;;;;;5112657;28;19947;-71
2023/08/14 12:21:15;;;;;;;;;;;12.10;99.90;;;;;;5114286;28;19912;-72
2023/08/14 12:23:46;;;;;;;;;;;12.20;99.90;;;;;;5111758;28;19915;-72
2023/08/14 12:26:14;;;;;;;;;;;12.10;99.90;;;;;;5103195;28;19912;-70
2023/08/14 12:28:41;;;;;;;;;;;12.10;99.90;;;;;;5114039;28;19920;-74
2023/08/14 12:31:08;;;;;;;;;;;12.00;99.90;;;;;;5113744;28;19907;-71
2023/08/14 12:33:35;;;;;;;;;;;12.10;99.90;;;;;;5110167;28;20356;-71
2023/08/14 12:36:02;;;;;;;;;;;12.00;99.90;;;;;;5114037;28;19983;-72
2023/08/14 12:38:29;;;;;;;;;;;12.00;99.90;;;;;;5112590;28;19915;-70
2023/08/14 12:40:56;;;;;;;;;;;12.00;99.90;;;;;;5093532;28;20003;-70
2023/08/14 12:43:23;;;;;;;;;;;12.00;99.90;;;;;;5093690;28;20357;-70
2023/08/14 12:45:49;;;;;;;;;;;12.00;99.90;;;;;;5093636;28;20312;-70
2023/08/14 12:48:16;;;;;;;;;;;12.00;99.90;;;;;;5075440;28;19943;-70
2023/08/14 12:50:43;;;;;;;;;;;12.00;99.90;;;;;;5104544;28;19955;-70
2023/08/14 12:53:16;;;;;;;;;;;12.00;99.90;;;;;;5120288;28;19969;-69
2023/08/14 12:55:46;;;;;;;;;;;12.00;99.90;;;;;;5117066;28;19954;-70
2023/08/14 12:58:12;;;;;;;;;;;12.00;99.90;;;;;;5103910;28;19919;-72
2023/08/14 13:00:40;;;;;;;;;;;12.00;99.90;;;;;;5099394;28;20376;-70
2023/08/14 13:03:06;;;;;;;;;;;11.90;99.90;;;;;;5092903;28;19916;-72
2023/08/14 13:05:33;;;;;;;;;;;11.90;99.90;;;;;;5092817;28;19931;-70
2023/08/14 13:08:00;;;;;;;;;;;11.80;99.90;;;;;;5103343;28;19919;-73
2023/08/14 13:10:27;;;;;;;;;;;11.90;99.90;;;;;;5113037;28;20272;-70
2023/08/14 13:12:56;;;;;;;;;;;11.90;99.90;;;;;;5113313;28;19943;-71
2023/08/14 13:15:24;;;;;;;;;;;11.80;99.90;;;;;;5109259;28;19997;-71
2023/08/14 13:17:50;;;;;;;;;;;11.80;99.90;;;;;;5091652;28;19909;-69
2023/08/14 13:20:17;;;;;;;;;;;11.80;99.90;;;;;;5092831;28;19908;-71
2023/08/14 13:22:44;;;;;;;;;;;11.80;99.90;;;;;;5093268;28;20340;-70
2023/08/14 13:25:10;;;;;;;;;;;11.70;99.90;;;;;;5109472;28;20054;-71
2023/08/14 13:27:37;;;;;;;;;;;11.70;99.90;;;;;;5112675;28;19973;-71
2023/08/14 13:30:05;;;;;;;;;;;11.60;99.90;;;;;;5101682;28;20394;-70
2023/08/14 13:32:31;;;;;;;;;;;11.70;99.90;;;;;;5092939;28;19909;-71
2023/08/14 13:34:58;;;;;;;;;;;11.60;99.90;;;;;;5092352;28;19934;-70
2023/08/14 13:37:24;;;;;;;;;;;11.50;99.90;;;;;;5092357;28;20368;-70
2023/08/14 13:39:51;;;;;;;;;;;11.50;99.90;;;;;;5108084;28;19926;-71
2023/08/14 13:42:18;;;;;;;;;;;11.50;99.90;;;;;;5092285;28;19951;-72
2023/08/14 13:44:44;;;;;;;;;;;11.40;99.90;;;;;;5101630;28;20007;-68
2023/08/14 13:47:11;;;;;;;;;;;11.40;99.90;;;;;;5112987;28;20387;-70
2023/08/14 13:49:38;;;;;;;;;;;11.40;99.90;;;;;;5112606;28;19912;-70
2023/08/14 13:52:04;;;;;;;;;;;11.30;99.90;;;;;;5112640;28;19908;-70
2023/08/14 13:54:31;;;;;;;;;;;11.40;99.90;;;;;;5112349;28;20360;-72
2023/08/14 13:56:58;;;;;;;;;;;11.30;99.90;;;;;;5111171;28;19953;-70
2023/08/14 13:59:24;;;;;;;;;;;11.20;99.90;;;;;;5112969;28;19907;-72
2023/08/14 14:01:51;;;;;;;;;;;11.30;99.90;;;;;;5112273;28;20361;-74
2023/08/14 14:04:18;;;;;;;;;;;11.30;99.90;;;;;;5094230;28;20356;-71
2023/08/14 14:06:44;;;;;;;;;;;11.20;99.90;;;;;;5096747;28;19912;-73
2023/08/14 14:09:11;;;;;;;;;;;11.20;99.90;;;;;;5091844;28;19927;-73
2023/08/14 14:11:38;;;;;;;;;;;11.10;99.90;;;;;;5091794;28;19922;-70
2023/08/14 14:14:04;;;;;;;;;;;11.10;99.90;;;;;;5092542;28;19959;-72
2023/08/14 14:16:50;;;;;;;;;;;11.10;99.90;;;;;;5092570;28;19954;-70